sensor_id;sensor_type;location;lat;lon;timestamp;temperature;humidity
12827;DHT22;66927;48.812;9.118;2024-02-16T00:01:32;13.00;99.90
12827;DHT22;66927;48.812;9.118;2024-02-16T00:03:58;13.00;99.90
12827;DHT22;66927;48.812;9.118;2024-02-16T00:06:23;13.10;99.90
12827;DHT22;66927;48.812;9.118;2024-02-16T00:08:49;13.10;99.90
12827;DHT22;66927;48.812;9.118;2024-02-16T00:11:14;13.10;99.90
12827;DHT22;66927;48.812;9.118;2024-02-16T00:13:40;13.10;99.90
12827;DHT22;66927;48.812;9.118;2024-02-16T00:16:06;13.10;99.90
12827;DHT22;66927;48.812;9.118;2024-02-16T00:18:32;13.10;99.90
12827;DHT22;66927;48.812;9.118;2024-02-16T00:20:57;13.10;99.90
12827;DHT22;66927;48.812;9.118;2024-02-16T00:23:23;13.10;99.90
12827;DHT22;66927;48.812;9.118;2024-02-16T00:25:51;13.10;99.90
12827;DHT22;66927;48.812;9.118;2024-02-16T00:28:17;13.10;99.90
12827;DHT22;66927;48.812;9.118;2024-02-16T00:30:42;13.10;99.90
12827;DHT22;66927;48.812;9.118;2024-02-16T00:33:08;13.20;99.90
12827;DHT22;66927;48.812;9.118;2024-02-16T00:35:33;13.20;99.90
12827;DHT22;66927;48.812;9.118;2024-02-16T00:38:00;13.20;99.90
12827;DHT22;66927;48.812;9.118;2024-02-16T00:40:25;13.20;99.90
12827;DHT22;66927;48.812;9.118;2024-02-16T00:42:52;13.20;99.90
12827;DHT22;66927;48.812;9.118;2024-02-16T00:45:17;13.20;99.90
12827;DHT22;66927;48.812;9.118;2024-02-16T00:47:43;13.10;99.90
12827;DHT22;66927;48.812;9.118;2024-02-16T00:50:10;13.10;99.90
12827;DHT22;66927;48.812;9.118;2024-02-16T00:52:36;13.10;99.90
12827;DHT22;66927;48.812;9.118;2024-02-16T00:55:04;13.00;99.90
12827;DHT22;66927;48.812;9.118;2024-02-16T00:57:30;13.00;99.90
12827;DHT22;66927;48.812;9.118;2024-02-16T00:59:55;13.00;99.90
12827;DHT22;66927;48.812;9.118;2024-02-16T01:02:21;13.00;99.90
12827;DHT22;66927;48.812;9.118;2024-02-16T01:04:47;13.00;99.90
12827;DHT22;66927;48.812;9.118;2024-02-16T01:07:15;13.00;99.90
12827;DHT22;66927;48.812;9.118;2024-02-16T01:09:41;13.10;99.90
12827;DHT22;66927;48.812;9.118;2024-02-16T01:12:06;13.00;99.90
12827;DHT22;66927;48.812;9.118;2024-02-16T01:14:33;13.00;99.90
12827;DHT22;66927;48.812;9.118;2024-02-16T01:16:59;13.00;99.90
12827;DHT22;66927;48.812;9.118;2024-02-16T01:19:25;13.00;99.90
12827;DHT22;66927;48.812;9.118;2024-02-16T01:21:50;13.00;99.90
12827;DHT22;66927;48.812;9.118;2024-02-16T01:24:23;13.00;99.90
12827;DHT22;66927;48.812;9.118;2024-02-16T01:26:49;13.00;99.90
12827;DHT22;66927;48.812;9.118;2024-02-16T01:29:14;13.10;99.90
12827;DHT22;66927;48.812;9.118;2024-02-16T01:31:40;13.10;99.90
12827;DHT22;66927;48.812;9.118;2024-02-16T01:34:05;13.10;99.90
12827;DHT22;66927;48.812;9.118;2024-02-16T01:36:31;13.00;99.90
12827;DHT22;66927;48.812;9.118;2024-02-16T01:38:56;13.00;99.90
12827;DHT22;66927;48.812;9.118;2024-02-16T01:41:22;12.90;99.90
12827;DHT22;66927;48.812;9.118;2024-02-16T01:43:48;13.00;99.90
12827;DHT22;66927;48.812;9.118;2024-02-16T01:46:13;13.00;99.90
12827;DHT22;66927;48.812;9.118;2024-02-16T01:48:39;13.00;99.90
12827;DHT22;66927;48.812;9.118;2024-02-16T01:51:07;13.00;99.90
12827;DHT22;66927;48.812;9.118;2024-02-16T01:53:36;13.00;99.90
12827;DHT22;66927;48.812;9.118;2024-02-16T01:56:02;13.10;99.90
12827;DHT22;66927;48.812;9.118;2024-02-16T01:58:28;13.20;99.90
12827;DHT22;66927;48.812;9.118;2024-02-16T02:00:54;13.20;99.90
12827;DHT22;66927;48.812;9.118;2024-02-16T02:03:20;13.20;99.90
12827;DHT22;66927;48.812;9.118;2024-02-16T02:05:46;13.20;99.90
12827;DHT22;66927;48.812;9.118;2024-02-16T02:08:13;13.20;99.90
12827;DHT22;66927;48.812;9.118;2024-02-16T02:10:39;13.10;99.90
12827;DHT22;66927;48.812;9.118;2024-02-16T02:13:05;13.10;99.90
12827;DHT22;66927;48.812;9.118;2024-02-16T02:15:32;13.10;99.90
12827;DHT22;66927;48.812;9.118;2024-02-16T02:17:58;13.10;99.90
12827;DHT22;66927;48.812;9.118;2024-02-16T02:20:25;13.10;99.90
12827;DHT22;66927;48.812;9.118;2024-02-16T02:22:51;13.00;99.90
12827;DHT22;66927;48.812;9.118;2024-02-16T02:25:16;13.00;99.90
12827;DHT22;66927;48.812;9.118;2024-02-16T02:27:42;13.00;99.90
12827;DHT22;66927;48.812;9.118;2024-02-16T02:30:08;13.00;99.90
12827;DHT22;66927;48.812;9.118;2024-02-16T02:32:34;13.00;99.90
12827;DHT22;66927;48.812;9.118;2024-02-16T02:35:00;13.00;99.90
12827;DHT22;66927;48.812;9.118;2024-02-16T02:37:26;12.90;99.90
12827;DHT22;66927;48.812;9.118;2024-02-16T02:39:52;12.80;99.90
12827;DHT22;66927;48.812;9.118;2024-02-16T02:42:17;12.80;99.90
12827;DHT22;66927;48.812;9.118;2024-02-16T02:44:43;12.80;99.90
12827;DHT22;66927;48.812;9.118;2024-02-16T02:47:17;12.80;99.90
12827;DHT22;66927;48.812;9.118;2024-02-16T02:49:44;12.90;99.90
12827;DHT22;66927;48.812;9.118;2024-02-16T02:52:09;12.90;99.90
12827;DHT22;66927;48.812;9.118;2024-02-16T02:54:35;12.80;99.90
12827;DHT22;66927;48.812;9.118;2024-02-16T02:57:02;12.80;99.90
12827;DHT22;66927;48.812;9.118;2024-02-16T02:59:28;12.80;99.90
12827;DHT22;66927;48.812;9.118;2024-02-16T03:01:53;12.80;99.90
12827;DHT22;66927;48.812;9.118;2024-02-16T03:04:20;12.80;99.90
12827;DHT22;66927;48.812;9.118;2024-02-16T03:06:46;12.80;99.90
12827;DHT22;66927;48.812;9.118;2024-02-16T03:09:13;12.80;99.90
12827;DHT22;66927;48.812;9.118;2024-02-16T03:11:39;12.80;99.90
12827;DHT22;66927;48.812;9.118;2024-02-16T03:14:05;12.80;99.90
12827;DHT22;66927;48.812;9.118;2024-02-16T03:16:33;12.80;99.90
12827;DHT22;66927;48.812;9.118;2024-02-16T03:18:59;12.80;99.90
12827;DHT22;66927;48.812;9.118;2024-02-16T03:21:25;12.80;99.90
12827;DHT22;66927;48.812;9.118;2024-02-16T03:23:52;12.80;99.90
12827;DHT22;66927;48.812;9.118;2024-02-16T03:26:19;12.80;99.90
12827;DHT22;66927;48.812;9.118;2024-02-16T03:28:46;12.70;99.90
12827;DHT22;66927;48.812;9.118;2024-02-16T03:31:19;12.70;99.90
12827;DHT22;66927;48.812;9.118;2024-02-16T03:33:49;12.70;99.90
12827;DHT22;66927;48.812;9.118;2024-02-16T03:36:15;12.70;99.90
12827;DHT22;66927;48.812;9.118;2024-02-16T03:38:45;12.70;99.90
12827;DHT22;66927;48.812;9.118;2024-02-16T03:41:19;12.70;99.90
12827;DHT22;66927;48.812;9.118;2024-02-16T03:43:45;12.70;99.90
12827;DHT22;66927;48.812;9.118;2024-02-16T03:46:11;12.70;99.90
12827;DHT22;66927;48.812;9.118;2024-02-16T03:48:36;12.70;99.90
12827;DHT22;66927;48.812;9.118;2024-02-16T03:51:02;12.70;99.90
12827;DHT22;66927;48.812;9.118;2024-02-16T03:53:32;12.60;99.90
12827;DHT22;66927;48.812;9.118;2024-02-16T03:55:59;12.60;99.90
12827;DHT22;66927;48.812;9.118;2024-02-16T03:58:25;12.60;99.90
12827;DHT22;66927;48.812;9.118;2024-02-16T04:00:50;12.60;99.90
12827;DHT22;66927;48.812;9.118;2024-02-16T04:03:20;12.50;99.90
12827;DHT22;66927;48.812;9.118;2024-02-16T04:05:45;12.50;99.90
12827;DHT22;66927;48.812;9.118;2024-02-16T04:08:11;12.50;99.90
12827;DHT22;66927;48.812;9.118;2024-02-16T04:10:38;12.50;99.90
12827;DHT22;66927;48.812;9.118;2024-02-16T04:13:04;12.50;99.90
12827;DHT22;66927;48.812;9.118;2024-02-16T04:15:29;12.50;99.90
12827;DHT22;66927;48.812;9.118;2024-02-16T04:17:55;12.50;99.90
12827;DHT22;66927;48.812;9.118;2024-02-16T04:20:20;12.50;99.90
12827;DHT22;66927;48.812;9.118;2024-02-16T04:22:46;12.50;99.90
12827;DHT22;66927;48.812;9.118;2024-02-16T04:25:12;12.50;99.90
12827;DHT22;66927;48.812;9.118;2024-02-16T04:27:38;12.50;99.90
12827;DHT22;66927;48.812;9.118;2024-02-16T04:30:04;12.50;99.90
12827;DHT22;66927;48.812;9.118;2024-02-16T04:32:31;12.50;99.90
12827;DHT22;66927;48.812;9.118;2024-02-16T04:34:58;12.50;99.90
12827;DHT22;66927;48.812;9.118;2024-02-16T04:37:28;12.60;99.90
12827;DHT22;66927;48.812;9.118;2024-02-16T04:39:55;12.60;99.90
12827;DHT22;66927;48.812;9.118;2024-02-16T04:42:21;12.60;99.90
12827;DHT22;66927;48.812;9.118;2024-02-16T04:44:46;12.50;99.90
12827;DHT22;66927;48.812;9.118;2024-02-16T04:47:14;12.60;99.90
12827;DHT22;66927;48.812;9.118;2024-02-16T04:49:40;12.50;99.90
12827;DHT22;66927;48.812;9.118;2024-02-16T04:52:05;12.50;99.90
12827;DHT22;66927;48.812;9.118;2024-02-16T04:54:34;12.50;99.90
12827;DHT22;66927;48.812;9.118;2024-02-16T04:56:59;12.60;99.90
12827;DHT22;66927;48.812;9.118;2024-02-16T04:59:25;12.60;99.90
12827;DHT22;66927;48.812;9.118;2024-02-16T05:01:50;12.60;99.90
12827;DHT22;66927;48.812;9.118;2024-02-16T05:04:16;12.60;99.90
12827;DHT22;66927;48.812;9.118;2024-02-16T05:06:46;12.60;99.90
12827;DHT22;66927;48.812;9.118;2024-02-16T05:09:16;12.60;99.90
12827;DHT22;66927;48.812;9.118;2024-02-16T05:11:45;12.60;99.90
12827;DHT22;66927;48.812;9.118;2024-02-16T05:14:11;12.60;99.90
12827;DHT22;66927;48.812;9.118;2024-02-16T05:16:46;12.50;99.90
12827;DHT22;66927;48.812;9.118;2024-02-16T05:19:13;12.50;99.90
12827;DHT22;66927;48.812;9.118;2024-02-16T05:21:39;12.50;99.90
12827;DHT22;66927;48.812;9.118;2024-02-16T05:24:05;12.50;99.90
12827;DHT22;66927;48.812;9.118;2024-02-16T05:26:30;12.50;99.90
12827;DHT22;66927;48.812;9.118;2024-02-16T05:28:56;12.50;99.90
12827;DHT22;66927;48.812;9.118;2024-02-16T05:31:22;12.40;99.90
12827;DHT22;66927;48.812;9.118;2024-02-16T05:33:48;12.40;99.90
12827;DHT22;66927;48.812;9.118;2024-02-16T05:36:18;12.40;99.90
12827;DHT22;66927;48.812;9.118;2024-02-16T05:38:46;12.40;99.90
12827;DHT22;66927;48.812;9.118;2024-02-16T05:41:12;12.40;99.90
12827;DHT22;66927;48.812;9.118;2024-02-16T05:43:38;12.40;99.90
12827;DHT22;66927;48.812;9.118;2024-02-16T05:46:04;12.40;99.90
12827;DHT22;66927;48.812;9.118;2024-02-16T05:48:33;12.40;99.90
12827;DHT22;66927;48.812;9.118;2024-02-16T05:51:00;12.40;99.90
12827;DHT22;66927;48.812;9.118;2024-02-16T05:53:27;12.30;99.90
12827;DHT22;66927;48.812;9.118;2024-02-16T05:55:53;12.30;99.90
12827;DHT22;66927;48.812;9.118;2024-02-16T05:58:20;12.30;99.90
12827;DHT22;66927;48.812;9.118;2024-02-16T06:00:46;12.30;99.90
12827;DHT22;66927;48.812;9.118;2024-02-16T06:03:14;12.30;99.90
12827;DHT22;66927;48.812;9.118;2024-02-16T06:05:40;12.30;99.90
12827;DHT22;66927;48.812;9.118;2024-02-16T06:08:12;12.30;99.90
12827;DHT22;66927;48.812;9.118;2024-02-16T06:10:38;12.30;99.90
12827;DHT22;66927;48.812;9.118;2024-02-16T06:13:03;12.20;99.90
12827;DHT22;66927;48.812;9.118;2024-02-16T06:15:29;12.20;99.90
12827;DHT22;66927;48.812;9.118;2024-02-16T06:17:56;12.20;99.90
12827;DHT22;66927;48.812;9.118;2024-02-16T06:20:23;12.20;99.90
12827;DHT22;66927;48.812;9.118;2024-02-16T06:22:48;12.30;99.90
12827;DHT22;66927;48.812;9.118;2024-02-16T06:25:15;12.20;99.90
12827;DHT22;66927;48.812;9.118;2024-02-16T06:27:40;12.20;99.90
12827;DHT22;66927;48.812;9.118;2024-02-16T06:30:07;12.10;99.90
12827;DHT22;66927;48.812;9.118;2024-02-16T06:32:36;12.10;99.90
12827;DHT22;66927;48.812;9.118;2024-02-16T06:35:01;12.10;99.90
12827;DHT22;66927;48.812;9.118;2024-02-16T06:37:27;12.00;99.90
12827;DHT22;66927;48.812;9.118;2024-02-16T06:39:52;12.00;99.90
12827;DHT22;66927;48.812;9.118;2024-02-16T06:42:18;12.10;99.90
12827;DHT22;66927;48.812;9.118;2024-02-16T06:44:45;12.10;99.90
12827;DHT22;66927;48.812;9.118;2024-02-16T06:47:10;12.10;99.90
12827;DHT22;66927;48.812;9.118;2024-02-16T06:49:36;12.10;99.90
12827;DHT22;66927;48.812;9.118;2024-02-16T06:52:02;12.10;99.90
12827;DHT22;66927;48.812;9.118;2024-02-16T06:54:31;12.10;99.90
12827;DHT22;66927;48.812;9.118;2024-02-16T06:56:56;12.10;99.90
12827;DHT22;66927;48.812;9.118;2024-02-16T06:59:22;12.00;99.90
12827;DHT22;66927;48.812;9.118;2024-02-16T07:01:48;12.00;99.90
12827;DHT22;66927;48.812;9.118;2024-02-16T07:04:13;11.90;99.90
12827;DHT22;66927;48.812;9.118;2024-02-16T07:06:40;12.00;99.90
12827;DHT22;66927;48.812;9.118;2024-02-16T07:09:06;12.00;99.90
12827;DHT22;66927;48.812;9.118;2024-02-16T07:11:31;12.00;99.90
12827;DHT22;66927;48.812;9.118;2024-02-16T07:14:00;12.00;99.90
12827;DHT22;66927;48.812;9.118;2024-02-16T07:16:27;12.00;99.90
12827;DHT22;66927;48.812;9.118;2024-02-16T07:18:54;12.00;99.90
12827;DHT22;66927;48.812;9.118;2024-02-16T07:21:20;11.90;99.90
12827;DHT22;66927;48.812;9.118;2024-02-16T07:23:47;11.90;99.90
12827;DHT22;66927;48.812;9.118;2024-02-16T07:26:13;11.90;99.90
12827;DHT22;66927;48.812;9.118;2024-02-16T07:28:39;11.90;99.90
12827;DHT22;66927;48.812;9.118;2024-02-16T07:31:06;11.90;99.90
12827;DHT22;66927;48.812;9.118;2024-02-16T07:33:34;11.90;99.90
12827;DHT22;66927;48.812;9.118;2024-02-16T07:35:59;11.90;99.90
12827;DHT22;66927;48.812;9.118;2024-02-16T07:38:25;12.00;99.90
12827;DHT22;66927;48.812;9.118;2024-02-16T07:40:53;12.00;99.90
12827;DHT22;66927;48.812;9.118;2024-02-16T07:43:18;12.00;99.90
12827;DHT22;66927;48.812;9.118;2024-02-16T07:45:44;12.00;99.90
12827;DHT22;66927;48.812;9.118;2024-02-16T07:48:10;11.90;99.90
12827;DHT22;66927;48.812;9.118;2024-02-16T07:50:35;11.90;99.90
12827;DHT22;66927;48.812;9.118;2024-02-16T07:53:01;11.90;99.90
12827;DHT22;66927;48.812;9.118;2024-02-16T07:55:26;11.90;99.90
12827;DHT22;66927;48.812;9.118;2024-02-16T07:57:52;12.00;99.90
12827;DHT22;66927;48.812;9.118;2024-02-16T08:00:18;12.00;99.90
12827;DHT22;66927;48.812;9.118;2024-02-16T08:02:44;11.90;99.90
12827;DHT22;66927;48.812;9.118;2024-02-16T08:05:13;11.90;99.90
12827;DHT22;66927;48.812;9.118;2024-02-16T08:07:40;11.90;99.90
12827;DHT22;66927;48.812;9.118;2024-02-16T08:10:08;11.90;99.90
12827;DHT22;66927;48.812;9.118;2024-02-16T08:12:35;11.90;99.90
12827;DHT22;66927;48.812;9.118;2024-02-16T08:15:02;11.90;99.90
12827;DHT22;66927;48.812;9.118;2024-02-16T08:17:29;11.90;99.90
12827;DHT22;66927;48.812;9.118;2024-02-16T08:19:55;11.90;99.90
12827;DHT22;66927;48.812;9.118;2024-02-16T08:22:21;12.00;99.90
12827;DHT22;66927;48.812;9.118;2024-02-16T08:24:50;12.10;99.90
12827;DHT22;66927;48.812;9.118;2024-02-16T08:27:17;12.10;99.90
12827;DHT22;66927;48.812;9.118;2024-02-16T08:29:43;12.20;99.90
12827;DHT22;66927;48.812;9.118;2024-02-16T08:32:09;12.20;99.90
12827;DHT22;66927;48.812;9.118;2024-02-16T08:34:35;12.20;99.90
12827;DHT22;66927;48.812;9.118;2024-02-16T08:37:04;12.30;99.90
12827;DHT22;66927;48.812;9.118;2024-02-16T08:39:31;12.30;99.90
12827;DHT22;66927;48.812;9.118;2024-02-16T08:41:58;12.40;99.90
12827;DHT22;66927;48.812;9.118;2024-02-16T08:44:24;12.40;99.90
12827;DHT22;66927;48.812;9.118;2024-02-16T08:46:50;12.40;99.90
12827;DHT22;66927;48.812;9.118;2024-02-16T08:49:16;12.50;99.90
12827;DHT22;66927;48.812;9.118;2024-02-16T08:51:42;12.50;99.90
12827;DHT22;66927;48.812;9.118;2024-02-16T08:54:08;12.50;99.90
12827;DHT22;66927;48.812;9.118;2024-02-16T08:56:34;12.60;99.90
12827;DHT22;66927;48.812;9.118;2024-02-16T08:59:01;12.70;99.90
12827;DHT22;66927;48.812;9.118;2024-02-16T09:01:34;12.70;99.90
12827;DHT22;66927;48.812;9.118;2024-02-16T09:04:00;12.80;99.90
12827;DHT22;66927;48.812;9.118;2024-02-16T09:06:29;12.90;99.90
12827;DHT22;66927;48.812;9.118;2024-02-16T09:08:55;12.90;99.90
12827;DHT22;66927;48.812;9.118;2024-02-16T09:11:22;13.00;99.90
12827;DHT22;66927;48.812;9.118;2024-02-16T09:13:48;13.00;99.90
12827;DHT22;66927;48.812;9.118;2024-02-16T09:16:14;13.10;99.90
12827;DHT22;66927;48.812;9.118;2024-02-16T09:18:39;13.10;99.90
12827;DHT22;66927;48.812;9.118;2024-02-16T09:21:06;13.20;99.90
12827;DHT22;66927;48.812;9.118;2024-02-16T09:23:32;13.20;99.90
12827;DHT22;66927;48.812;9.118;2024-02-16T09:25:58;13.30;99.90
12827;DHT22;66927;48.812;9.118;2024-02-16T09:28:28;13.30;99.90
12827;DHT22;66927;48.812;9.118;2024-02-16T09:30:55;13.30;99.90
12827;DHT22;66927;48.812;9.118;2024-02-16T09:33:21;13.30;99.90
12827;DHT22;66927;48.812;9.118;2024-02-16T09:35:49;13.40;99.90
12827;DHT22;66927;48.812;9.118;2024-02-16T09:38:15;13.40;99.90
12827;DHT22;66927;48.812;9.118;2024-02-16T09:40:42;13.50;99.90
12827;DHT22;66927;48.812;9.118;2024-02-16T09:43:07;13.50;99.90
12827;DHT22;66927;48.812;9.118;2024-02-16T09:45:33;13.50;99.90
12827;DHT22;66927;48.812;9.118;2024-02-16T09:47:59;13.50;99.90
12827;DHT22;66927;48.812;9.118;2024-02-16T09:50:26;13.50;99.90
12827;DHT22;66927;48.812;9.118;2024-02-16T09:52:54;13.60;99.90
12827;DHT22;66927;48.812;9.118;2024-02-16T09:55:21;13.60;99.90
12827;DHT22;66927;48.812;9.118;2024-02-16T09:57:58;13.60;99.90
12827;DHT22;66927;48.812;9.118;2024-02-16T10:00:24;13.70;99.90
12827;DHT22;66927;48.812;9.118;2024-02-16T10:02:50;13.80;99.90
12827;DHT22;66927;48.812;9.118;2024-02-16T10:05:18;13.90;99.90
12827;DHT22;66927;48.812;9.118;2024-02-16T10:07:44;14.00;99.90
12827;DHT22;66927;48.812;9.118;2024-02-16T10:10:24;14.10;99.90
12827;DHT22;66927;48.812;9.118;2024-02-16T10:13:00;14.30;99.90
12827;DHT22;66927;48.812;9.118;2024-02-16T10:15:26;14.40;99.90
12827;DHT22;66927;48.812;9.118;2024-02-16T10:18:01;14.40;99.90
12827;DHT22;66927;48.812;9.118;2024-02-16T10:20:29;14.60;99.90
12827;DHT22;66927;48.812;9.118;2024-02-16T10:23:08;14.70;99.90
12827;DHT22;66927;48.812;9.118;2024-02-16T10:25:35;14.80;99.90
12827;DHT22;66927;48.812;9.118;2024-02-16T10:28:11;14.90;99.90
12827;DHT22;66927;48.812;9.118;2024-02-16T10:30:40;14.90;99.90
12827;DHT22;66927;48.812;9.118;2024-02-16T10:33:08;15.00;99.90
12827;DHT22;66927;48.812;9.118;2024-02-16T10:35:36;15.00;99.90
12827;DHT22;66927;48.812;9.118;2024-02-16T10:38:03;15.10;99.90
12827;DHT22;66927;48.812;9.118;2024-02-16T10:40:38;15.10;99.90
12827;DHT22;66927;48.812;9.118;2024-02-16T10:43:04;15.10;99.90
12827;DHT22;66927;48.812;9.118;2024-02-16T10:45:35;15.10;99.90
12827;DHT22;66927;48.812;9.118;2024-02-16T10:48:05;15.10;99.90
12827;DHT22;66927;48.812;9.118;2024-02-16T10:50:34;15.10;99.90
12827;DHT22;66927;48.812;9.118;2024-02-16T10:53:11;15.10;99.90
12827;DHT22;66927;48.812;9.118;2024-02-16T10:55:39;15.10;99.90
12827;DHT22;66927;48.812;9.118;2024-02-16T10:58:07;15.10;99.90
12827;DHT22;66927;48.812;9.118;2024-02-16T11:00:33;15.10;99.90
12827;DHT22;66927;48.812;9.118;2024-02-16T11:03:02;15.10;99.90
12827;DHT22;66927;48.812;9.118;2024-02-16T11:05:36;15.00;99.90
12827;DHT22;66927;48.812;9.118;2024-02-16T11:08:05;15.00;99.90
12827;DHT22;66927;48.812;9.118;2024-02-16T11:10:36;15.00;99.90
12827;DHT22;66927;48.812;9.118;2024-02-16T11:13:03;15.10;99.90
12827;DHT22;66927;48.812;9.118;2024-02-16T11:15:33;15.10;99.90
12827;DHT22;66927;48.812;9.118;2024-02-16T11:18:03;15.10;99.90
12827;DHT22;66927;48.812;9.118;2024-02-16T11:20:36;15.10;99.90
12827;DHT22;66927;48.812;9.118;2024-02-16T11:23:08;15.10;99.90
12827;DHT22;66927;48.812;9.118;2024-02-16T11:25:34;15.10;99.90
12827;DHT22;66927;48.812;9.118;2024-02-16T11:28:01;15.10;99.90
12827;DHT22;66927;48.812;9.118;2024-02-16T11:30:28;15.10;99.90
12827;DHT22;66927;48.812;9.118;2024-02-16T11:32:53;15.10;99.90
12827;DHT22;66927;48.812;9.118;2024-02-16T11:35:19;15.20;99.90
12827;DHT22;66927;48.812;9.118;2024-02-16T11:37:45;15.30;99.90
12827;DHT22;66927;48.812;9.118;2024-02-16T11:40:13;15.30;99.90
12827;DHT22;66927;48.812;9.118;2024-02-16T11:42:39;15.30;99.90
12827;DHT22;66927;48.812;9.118;2024-02-16T11:45:05;15.30;99.90
12827;DHT22;66927;48.812;9.118;2024-02-16T11:47:31;15.30;99.90
12827;DHT22;66927;48.812;9.118;2024-02-16T11:50:05;15.30;99.90
12827;DHT22;66927;48.812;9.118;2024-02-16T11:52:32;15.30;99.90
12827;DHT22;66927;48.812;9.118;2024-02-16T11:54:58;15.30;99.90
12827;DHT22;66927;48.812;9.118;2024-02-16T11:57:26;15.30;99.90
12827;DHT22;66927;48.812;9.118;2024-02-16T11:59:53;15.20;99.90
12827;DHT22;66927;48.812;9.118;2024-02-16T12:02:20;15.20;99.90
12827;DHT22;66927;48.812;9.118;2024-02-16T12:04:46;15.20;99.90
12827;DHT22;66927;48.812;9.118;2024-02-16T12:07:15;15.30;99.90
12827;DHT22;66927;48.812;9.118;2024-02-16T12:09:54;15.40;99.90
12827;DHT22;66927;48.812;9.118;2024-02-16T12:12:20;15.40;99.90
12827;DHT22;66927;48.812;9.118;2024-02-16T12:14:45;15.40;99.90
12827;DHT22;66927;48.812;9.118;2024-02-16T12:17:11;15.40;99.90
12827;DHT22;66927;48.812;9.118;2024-02-16T12:19:36;15.40;99.90
12827;DHT22;66927;48.812;9.118;2024-02-16T12:22:08;15.30;99.90
12827;DHT22;66927;48.812;9.118;2024-02-16T12:24:34;15.30;99.90
12827;DHT22;66927;48.812;9.118;2024-02-16T12:26:59;15.30;99.90
12827;DHT22;66927;48.812;9.118;2024-02-16T12:29:25;15.30;99.90
12827;DHT22;66927;48.812;9.118;2024-02-16T12:31:51;15.40;99.90
12827;DHT22;66927;48.812;9.118;2024-02-16T12:34:16;15.40;99.90
12827;DHT22;66927;48.812;9.118;2024-02-16T12:36:42;15.40;99.90
12827;DHT22;66927;48.812;9.118;2024-02-16T12:39:09;15.40;99.90
12827;DHT22;66927;48.812;9.118;2024-02-16T12:41:40;15.40;99.90
12827;DHT22;66927;48.812;9.118;2024-02-16T12:44:08;15.40;99.90
12827;DHT22;66927;48.812;9.118;2024-02-16T12:46:34;15.40;99.90
12827;DHT22;66927;48.812;9.118;2024-02-16T12:49:00;15.50;99.90
12827;DHT22;66927;48.812;9.118;2024-02-16T12:51:26;15.50;99.90
12827;DHT22;66927;48.812;9.118;2024-02-16T12:53:51;15.50;99.90
12827;DHT22;66927;48.812;9.118;2024-02-16T12:56:18;15.50;99.90
12827;DHT22;66927;48.812;9.118;2024-02-16T12:58:43;15.50;99.90
12827;DHT22;66927;48.812;9.118;2024-02-16T13:01:10;15.50;99.90
12827;DHT22;66927;48.812;9.118;2024-02-16T13:03:37;15.50;99.90
12827;DHT22;66927;48.812;9.118;2024-02-16T13:06:03;15.50;99.90
12827;DHT22;66927;48.812;9.118;2024-02-16T13:08:30;15.50;99.90
12827;DHT22;66927;48.812;9.118;2024-02-16T13:10:57;15.50;99.90
12827;DHT22;66927;48.812;9.118;2024-02-16T13:13:23;15.50;99.90
12827;DHT22;66927;48.812;9.118;2024-02-16T13:15:49;15.50;99.90
12827;DHT22;66927;48.812;9.118;2024-02-16T13:18:15;15.60;99.90
12827;DHT22;66927;48.812;9.118;2024-02-16T13:20:42;15.60;99.90
12827;DHT22;66927;48.812;9.118;2024-02-16T13:23:08;15.60;99.90
12827;DHT22;66927;48.812;9.118;2024-02-16T13:25:36;15.70;99.90
12827;DHT22;66927;48.812;9.118;2024-02-16T13:28:02;15.70;99.90
12827;DHT22;66927;48.812;9.118;2024-02-16T13:30:28;15.70;99.90
12827;DHT22;66927;48.812;9.118;2024-02-16T13:32:54;15.70;99.90
12827;DHT22;66927;48.812;9.118;2024-02-16T13:35:20;15.70;99.90
12827;DHT22;66927;48.812;9.118;2024-02-16T13:37:45;15.70;99.90
12827;DHT22;66927;48.812;9.118;2024-02-16T13:40:11;15.70;99.90
12827;DHT22;66927;48.812;9.118;2024-02-16T13:42:39;15.70;99.90
12827;DHT22;66927;48.812;9.118;2024-02-16T13:45:08;15.70;99.90
12827;DHT22;66927;48.812;9.118;2024-02-16T13:47:40;15.70;99.90
12827;DHT22;66927;48.812;9.118;2024-02-16T13:50:09;15.70;99.90
12827;DHT22;66927;48.812;9.118;2024-02-16T13:52:49;15.60;99.90
12827;DHT22;66927;48.812;9.118;2024-02-16T13:55:22;15.70;99.90
12827;DHT22;66927;48.812;9.118;2024-02-16T13:57:48;15.70;99.90
12827;DHT22;66927;48.812;9.118;2024-02-16T14:00:13;15.70;99.90
12827;DHT22;66927;48.812;9.118;2024-02-16T14:02:41;15.70;99.90
12827;DHT22;66927;48.812;9.118;2024-02-16T14:05:07;15.70;99.90
12827;DHT22;66927;48.812;9.118;2024-02-16T14:07:33;15.70;99.90
12827;DHT22;66927;48.812;9.118;2024-02-16T14:09:59;15.70;99.90
12827;DHT22;66927;48.812;9.118;2024-02-16T14:12:24;15.70;99.90
12827;DHT22;66927;48.812;9.118;2024-02-16T14:14:50;15.60;99.90
12827;DHT22;66927;48.812;9.118;2024-02-16T14:17:15;15.70;99.90
12827;DHT22;66927;48.812;9.118;2024-02-16T14:19:41;15.60;99.90
12827;DHT22;66927;48.812;9.118;2024-02-16T14:22:07;15.60;99.90
12827;DHT22;66927;48.812;9.118;2024-02-16T14:24:35;15.60;99.90
12827;DHT22;66927;48.812;9.118;2024-02-16T14:27:00;15.60;99.90
12827;DHT22;66927;48.812;9.118;2024-02-16T14:29:26;15.60;99.90
12827;DHT22;66927;48.812;9.118;2024-02-16T14:31:51;15.60;99.90
12827;DHT22;66927;48.812;9.118;2024-02-16T14:34:17;15.60;99.90
12827;DHT22;66927;48.812;9.118;2024-02-16T14:36:43;15.60;99.90
12827;DHT22;66927;48.812;9.118;2024-02-16T14:39:08;15.70;99.90
12827;DHT22;66927;48.812;9.118;2024-02-16T14:41:34;15.70;99.90
12827;DHT22;66927;48.812;9.118;2024-02-16T14:44:01;15.60;99.90
12827;DHT22;66927;48.812;9.118;2024-02-16T14:46:27;15.60;99.90
12827;DHT22;66927;48.812;9.118;2024-02-16T14:48:53;15.60;99.90
12827;DHT22;66927;48.812;9.118;2024-02-16T14:51:19;15.50;99.90
12827;DHT22;66927;48.812;9.118;2024-02-16T14:53:45;15.50;99.90
12827;DHT22;66927;48.812;9.118;2024-02-16T14:56:11;15.50;99.90
12827;DHT22;66927;48.812;9.118;2024-02-16T14:58:37;15.50;99.90
12827;DHT22;66927;48.812;9.118;2024-02-16T15:01:02;15.50;99.90
12827;DHT22;66927;48.812;9.118;2024-02-16T15:03:29;15.50;99.90
12827;DHT22;66927;48.812;9.118;2024-02-16T15:05:59;15.50;99.90
12827;DHT22;66927;48.812;9.118;2024-02-16T15:08:26;15.50;99.90
12827;DHT22;66927;48.812;9.118;2024-02-16T15:10:52;15.50;99.90
12827;DHT22;66927;48.812;9.118;2024-02-16T15:13:18;15.50;99.90
12827;DHT22;66927;48.812;9.118;2024-02-16T15:15:43;15.50;99.90
12827;DHT22;66927;48.812;9.118;2024-02-16T15:18:09;15.50;99.90
12827;DHT22;66927;48.812;9.118;2024-02-16T15:20:34;15.50;99.90
12827;DHT22;66927;48.812;9.118;2024-02-16T15:23:00;15.50;99.90
12827;DHT22;66927;48.812;9.118;2024-02-16T15:25:26;15.50;99.90
12827;DHT22;66927;48.812;9.118;2024-02-16T15:27:51;15.50;99.90